Time;durP1;ratioP1;P1;durP2;ratioP2;P2;SDS_P1;SDS_P2;PMS_P1;PMS_P2;Temp;Humidity;BMP_temperature;BMP_pressure;BME280_temperature;BME280_humidity;BME280_pressure;Samples;Min_cycle;Max_cycle;Signal;HPM_P1;HPM_P2
2023/03/21 00:01:51;;;;;;;31.47;29.60;;;;;;;-141.22;100.00;65034.22;4934141;29;20457;-48
2023/03/21 00:04:19;;;;;;;34.27;31.67;;;;;;;-141.22;100.00;65034.22;4934701;29;20429;-45
2023/03/21 00:06:47;;;;;;;32.67;30.60;;;;;;;-141.22;100.00;65034.22;4934173;29;20441;-51
2023/03/21 00:09:15;;;;;;;33.23;31.13;;;;;;;-141.22;100.00;65034.22;4934399;29;21176;-46
2023/03/21 00:11:43;;;;;;;35.97;33.33;;;;;;;-141.22;100.00;65034.22;4933570;28;21062;-47
2023/03/21 00:14:13;;;;;;;36.07;33.17;;;;;;;-141.22;100.00;65034.22;4934496;29;20531;-53
2023/03/21 00:16:44;;;;;;;33.87;31.67;;;;;;;-141.22;100.00;65034.22;4934268;29;20484;-50
2023/03/21 00:19:14;;;;;;;35.83;33.30;;;;;;;-141.22;100.00;65034.22;4934225;29;20495;-49
2023/03/21 00:21:42;;;;;;;34.70;32.27;;;;;;;-141.22;100.00;65034.22;4933088;28;20503;-47
2023/03/21 00:24:30;;;;;;;34.10;31.70;;;;;;;-141.22;100.00;65034.22;4934340;29;20462;-49
2023/03/21 00:26:58;;;;;;;38.97;35.93;;;;;;;-141.22;100.00;65034.22;4934067;29;20433;-49
2023/03/21 00:29:47;;;;;;;34.87;32.40;;;;;;;-141.22;100.00;65034.22;4933375;28;20495;-50
2023/03/21 00:32:15;;;;;;;36.00;33.30;;;;;;;-141.22;100.00;65034.22;4933711;29;20926;-48
2023/03/21 00:34:44;;;;;;;36.50;33.60;;;;;;;-141.22;100.00;65034.22;4934049;29;20437;-47
2023/03/21 00:37:28;;;;;;;41.13;37.73;;;;;;;-141.22;100.00;65034.22;4933873;29;20436;-48
2023/03/21 00:39:56;;;;;;;38.60;35.40;;;;;;;-141.22;100.00;65034.22;4933493;28;20468;-47
2023/03/21 00:42:25;;;;;;;38.30;35.10;;;;;;;-141.22;100.00;65034.22;4933684;29;20508;-49
2023/03/21 00:44:52;;;;;;;39.33;36.00;;;;;;;-141.22;100.00;65034.22;4934141;29;20811;-47
2023/03/21 00:47:20;;;;;;;40.27;36.77;;;;;;;-141.22;100.00;65034.22;4934171;29;20440;-49
2023/03/21 00:49:52;;;;;;;39.60;36.10;;;;;;;-141.22;100.00;65034.22;4933316;28;20504;-49
2023/03/21 00:52:20;;;;;;;41.80;38.13;;;;;;;-141.22;100.00;65034.22;4933808;29;20436;-46
2023/03/21 00:55:01;;;;;;;41.43;37.63;;;;;;;-141.22;100.00;65034.22;4934053;29;20444;-47
2023/03/21 00:57:29;;;;;;;42.30;38.50;;;;;;;-141.22;100.00;65034.22;4934125;29;20831;-46
2023/03/21 01:00:09;;;;;;;40.83;37.20;;;;;;;-141.22;100.00;65034.22;4933089;28;20468;-49
2023/03/21 01:02:37;;;;;;;40.97;37.57;;;;;;;-141.22;100.00;65034.22;4933674;29;20433;-48
2023/03/21 01:05:07;;;;;;;45.13;40.83;;;;;;;-141.22;100.00;65034.22;4933620;29;20451;-46
2023/03/21 01:07:34;;;;;;;42.43;38.67;;;;;;;-141.22;100.00;65034.22;4933809;29;20793;-50
2023/03/21 01:10:02;;;;;;;44.60;40.40;;;;;;;-141.22;100.00;65034.22;4933246;28;20543;-47
2023/03/21 01:12:30;;;;;;;43.20;39.10;;;;;;;-141.22;100.00;65034.22;4933633;29;20479;-50
2023/03/21 01:14:57;;;;;;;50.17;44.50;;;;;;;-141.22;100.00;65034.22;4933651;29;20791;-46
2023/03/21 01:17:25;;;;;;;51.13;43.47;;;;;;;-141.22;100.00;65034.22;4933525;29;20476;-48
2023/03/21 01:19:53;;;;;;;44.53;40.20;;;;;;;-141.22;100.00;65034.22;4932896;28;20507;-52
2023/03/21 01:22:22;;;;;;;51.03;45.53;;;;;;;-141.22;100.00;65034.22;4933531;29;20440;-46
2023/03/21 01:24:49;;;;;;;46.93;42.63;;;;;;;-141.22;100.00;65034.22;4933714;29;20472;-46
2023/03/21 01:27:23;;;;;;;50.77;45.87;;;;;;;-141.22;100.00;65034.22;4933372;29;20440;-46
2023/03/21 01:29:51;;;;;;;49.93;44.07;;;;;;;-141.22;100.00;65034.22;4932911;28;20468;-47
2023/03/21 01:32:19;;;;;;;49.93;44.93;;;;;;;-141.22;100.00;65034.22;4933197;29;20815;-48
2023/03/21 01:34:46;;;;;;;49.27;44.50;;;;;;;-141.22;100.00;65034.22;4935885;29;20432;-47
2023/03/21 01:37:16;;;;;;;50.13;44.93;;;;;;;-141.22;100.00;65034.22;4937239;29;20479;-48
2023/03/21 01:39:45;;;;;;;44.70;40.53;;;;;;;-141.22;100.00;65034.22;4937053;28;20456;-46
2023/03/21 01:42:14;;;;;;;44.93;41.07;;;;;;;-141.22;100.00;65034.22;4936772;29;20440;-54
2023/03/21 01:44:57;;;;;;;45.00;40.60;;;;;;;-141.22;100.00;65034.22;4936963;29;20531;-52
2023/03/21 01:47:25;;;;;;;45.83;41.17;;;;;;;-141.22;100.00;65034.22;4936791;29;20941;-48
2023/03/21 01:49:56;;;;;;;45.80;41.40;;;;;;;-141.22;100.00;65034.22;4936326;28;20468;-54
2023/03/21 01:52:28;;;;;;;45.30;40.60;;;;;;;-141.22;100.00;65034.22;4936440;29;20463;-55
2023/03/21 01:55:11;;;;;;;46.30;41.53;;;;;;;-141.22;100.00;65034.22;4936809;29;20443;-50
2023/03/21 01:57:43;;;;;;;45.53;41.10;;;;;;;-141.22;100.00;65034.22;4936609;29;20469;-52
2023/03/21 02:00:30;;;;;;;43.97;39.60;;;;;;;-141.22;100.00;65034.22;4936452;28;20496;-48
2023/03/21 02:03:00;;;;;;;46.67;42.17;;;;;;;-141.22;100.00;65034.22;4936412;29;20516;-52
2023/03/21 02:05:51;;;;;;;45.90;41.53;;;;;;;-141.22;100.00;65034.22;4936523;29;20439;-54
2023/03/21 02:08:19;;;;;;;46.80;42.00;;;;;;;-141.22;100.00;65034.22;4936783;29;20436;-47
2023/03/21 02:10:51;;;;;;;49.80;44.40;;;;;;;-141.22;100.00;65034.22;4936216;28;20472;-47
2023/03/21 02:13:19;;;;;;;55.90;47.80;;;;;;;-141.22;100.00;65034.22;4936261;29;20496;-48
2023/03/21 02:15:57;;;;;;;69.30;50.13;;;;;;;-141.22;100.00;65034.22;4936520;29;20825;-49
2023/03/21 02:18:38;;;;;;;65.80;47.13;;;;;;;-141.22;100.00;65034.22;4936661;29;20417;-47
2023/03/21 02:21:31;;;;;;;46.33;41.47;;;;;;;-141.22;100.00;65034.22;4936080;28;20464;-52
2023/03/21 02:24:27;;;;;;;44.70;40.20;;;;;;;-141.22;100.00;65034.22;4936438;29;20432;-51
2023/03/21 02:27:05;;;;;;;49.17;44.13;;;;;;;-141.22;100.00;65034.22;4936402;29;20532;-53
2023/03/21 02:30:15;;;;;;;45.10;40.50;;;;;;;-141.22;100.00;65034.22;4935719;28;20444;-49
2023/03/21 02:33:10;;;;;;;43.87;39.87;;;;;;;-141.22;100.00;65034.22;4936036;29;20460;-49
2023/03/21 02:35:55;;;;;;;45.53;40.90;;;;;;;-141.22;100.00;65034.22;4936124;29;20437;-52
2023/03/21 02:38:40;;;;;;;49.33;43.90;;;;;;;-141.22;100.00;65034.22;4935928;29;20483;-54
2023/03/21 02:41:17;;;;;;;49.40;42.37;;;;;;;-141.22;100.00;65034.22;4935588;28;20468;-48
2023/03/21 02:43:54;;;;;;;45.60;41.17;;;;;;;-141.22;100.00;65034.22;4936172;29;20970;-49
2023/03/21 02:46:28;;;;;;;56.10;43.87;;;;;;;-141.22;100.00;65034.22;4935653;29;20433;-52
2023/03/21 02:49:16;;;;;;;44.10;40.00;;;;;;;-141.22;100.00;65034.22;4935786;29;20456;-48
2023/03/21 02:51:47;;;;;;;55.13;47.20;;;;;;;-141.22;100.00;65034.22;4935030;28;20479;-51
2023/03/21 02:54:18;;;;;;;47.60;42.50;;;;;;;-141.22;100.00;65034.22;4936113;29;20437;-48
2023/03/21 02:57:06;;;;;;;45.80;41.07;;;;;;;-141.22;100.00;65034.22;4935866;29;20527;-48
2023/03/21 02:59:35;;;;;;;41.07;37.57;;;;;;;-141.22;100.00;65034.22;4935052;28;20480;-47
2023/03/21 03:02:16;;;;;;;42.37;38.67;;;;;;;-141.22;100.00;65034.22;4935526;29;20433;-51
2023/03/21 03:04:43;;;;;;;40.07;36.60;;;;;;;-141.22;100.00;65034.22;4935477;29;20455;-50
2023/03/21 03:07:31;;;;;;;49.13;43.73;;;;;;;-141.22;100.00;65034.22;4935701;29;20433;-51
2023/03/21 03:10:17;;;;;;;40.53;36.80;;;;;;;-141.22;100.00;65034.22;4934811;28;20464;-51
2023/03/21 03:12:55;;;;;;;44.07;39.57;;;;;;;-141.22;100.00;65034.22;4935257;29;20942;-48
2023/03/21 03:15:32;;;;;;;40.37;36.70;;;;;;;-141.22;100.00;65034.22;4935382;29;20476;-49
2023/03/21 03:18:07;;;;;;;40.60;36.90;;;;;;;-141.22;100.00;65034.22;4935646;29;20502;-52
2023/03/21 03:20:45;;;;;;;43.33;38.70;;;;;;;-141.22;100.00;65034.22;4934731;28;21019;-44
2023/03/21 03:23:24;;;;;;;41.83;38.10;;;;;;;-141.22;100.00;65034.22;4935290;29;20432;-49
2023/03/21 03:25:58;;;;;;;41.43;37.87;;;;;;;-141.22;100.00;65034.22;4935140;29;21017;-50
2023/03/21 03:28:30;;;;;;;40.40;37.00;;;;;;;-141.22;100.00;65034.22;4935174;29;20436;-53
2023/03/21 03:30:59;;;;;;;46.00;39.67;;;;;;;-141.22;100.00;65034.22;4936362;28;20825;-49
2023/03/21 03:33:39;;;;;;;40.10;36.60;;;;;;;-141.22;100.00;65034.22;4927071;29;20456;-52
2023/03/21 03:36:11;;;;;;;41.70;37.73;;;;;;;-141.22;100.00;65034.22;4937614;29;20462;-50
2023/03/21 03:38:57;;;;;;;41.57;37.67;;;;;;;-141.22;100.00;65034.22;4938284;29;20578;-48
2023/03/21 03:41:28;;;;;;;41.03;37.03;;;;;;;-141.22;100.00;65034.22;4937521;28;20464;-48
2023/03/21 03:44:03;;;;;;;40.60;37.20;;;;;;;-141.22;100.00;65034.22;4937956;29;20428;-46
2023/03/21 03:46:36;;;;;;;38.40;35.20;;;;;;;-141.22;100.00;65034.22;4937975;29;20440;-45
2023/03/21 03:49:08;;;;;;;38.17;34.77;;;;;;;-141.22;100.00;65034.22;4938225;29;20472;-45
2023/03/21 03:51:43;;;;;;;35.27;32.30;;;;;;;-141.22;100.00;65034.22;4937374;28;20990;-45
2023/03/21 03:54:14;;;;;;;35.90;33.00;;;;;;;-141.22;100.00;65034.22;4937712;29;20434;-48
2023/03/21 03:56:44;;;;;;;34.07;31.57;;;;;;;-141.22;100.00;65034.22;4937662;29;20447;-45
2023/03/21 03:59:11;;;;;;;34.80;32.10;;;;;;;-141.22;100.00;65034.22;4938310;29;20523;-43
2023/03/21 04:01:40;;;;;;;34.67;32.00;;;;;;;-141.22;100.00;65034.22;4937527;28;20465;-45
2023/03/21 04:04:07;;;;;;;34.47;31.80;;;;;;;-141.22;100.00;65034.22;4937869;29;20451;-43
2023/03/21 04:06:40;;;;;;;35.63;32.87;;;;;;;-141.22;100.00;65034.22;4939289;29;20448;-49
2023/03/21 04:09:08;;;;;;;35.47;32.73;;;;;;;-141.22;100.00;65034.22;4930623;29;20453;-44
2023/03/21 04:11:49;;;;;;;35.70;32.93;;;;;;;-141.22;100.00;65034.22;4937855;29;20441;-44
2023/03/21 04:14:17;;;;;;;34.53;32.00;;;;;;;-141.22;100.00;65034.22;4938453;29;20946;-46
2023/03/21 04:16:44;;;;;;;36.13;33.07;;;;;;;-141.22;100.00;65034.22;4937238;29;20935;-47
2023/03/21 04:19:14;;;;;;;34.00;31.50;;;;;;;-141.22;100.00;65034.22;4938368;29;20876;-47
2023/03/21 04:21:42;;;;;;;38.43;35.00;;;;;;;-141.22;100.00;65034.22;4936813;28;20907;-50
2023/03/21 04:24:10;;;;;;;33.93;31.50;;;;;;;-141.22;100.00;65034.22;4937360;29;20927;-48
2023/03/21 04:26:38;;;;;;;34.80;32.13;;;;;;;-141.22;100.00;65034.22;4938052;29;20491;-50
2023/03/21 04:29:07;;;;;;;33.43;30.97;;;;;;;-141.22;100.00;65034.22;4937165;29;20463;-45
2023/03/21 04:31:35;;;;;;;33.37;30.70;;;;;;;-141.22;100.00;65034.22;4936580;28;20465;-49
2023/03/21 04:34:08;;;;;;;32.73;30.40;;;;;;;-141.22;100.00;65034.22;4937490;29;20456;-48
2023/03/21 04:36:41;;;;;;;33.90;31.60;;;;;;;-141.22;100.00;65034.22;4936968;29;20436;-49
2023/03/21 04:39:11;;;;;;;36.30;32.90;;;;;;;-141.22;100.00;65034.22;4936805;29;20508;-52
2023/03/21 04:41:39;;;;;;;32.73;30.43;;;;;;;-141.22;100.00;65034.22;4924350;28;20545;-47
2023/03/21 04:44:10;;;;;;;32.90;30.50;;;;;;;-141.22;100.00;65034.22;4918080;29;20466;-47
2023/03/21 04:46:39;;;;;;;32.63;30.57;;;;;;;-141.22;100.00;65034.22;4916925;29;20943;-45
2023/03/21 04:49:07;;;;;;;32.13;30.13;;;;;;;-141.22;100.00;65034.22;4917213;29;20568;-47
2023/03/21 04:51:35;;;;;;;31.27;29.23;;;;;;;-141.22;100.00;65034.22;4916417;28;20571;-49
2023/03/21 04:54:04;;;;;;;33.13;30.83;;;;;;;-141.22;100.00;65034.22;4917873;29;20441;-50
2023/03/21 04:56:32;;;;;;;34.87;31.83;;;;;;;-141.22;100.00;65034.22;4918695;29;20500;-49
2023/03/21 04:59:05;;;;;;;33.60;31.37;;;;;;;-141.22;100.00;65034.22;4917993;29;21091;-46
2023/03/21 05:01:34;;;;;;;33.50;31.20;;;;;;;-141.22;100.00;65034.22;4917913;28;20489;-45
2023/03/21 05:04:03;;;;;;;34.10;31.63;;;;;;;-141.22;100.00;65034.22;4918476;29;20962;-44
2023/03/21 05:06:31;;;;;;;32.97;30.80;;;;;;;-141.22;100.00;65034.22;4918750;29;20777;-46
2023/03/21 05:09:04;;;;;;;33.03;30.83;;;;;;;-141.22;100.00;65034.22;4921202;29;20457;-44
2023/03/21 05:11:34;;;;;;;31.90;29.80;;;;;;;-141.22;100.00;65034.22;4921444;28;20528;-46
2023/03/21 05:14:02;;;;;;;35.57;33.00;;;;;;;-141.22;100.00;65034.22;4921862;29;20433;-46
2023/03/21 05:16:30;;;;;;;34.73;31.83;;;;;;;-141.22;100.00;65034.22;4922348;29;20441;-49
2023/03/21 05:19:02;;;;;;;32.30;30.20;;;;;;;-141.22;100.00;65034.22;4921920;29;20528;-48
2023/03/21 05:21:33;;;;;;;32.73;30.57;;;;;;;-141.22;100.00;65034.22;4921226;28;20461;-46
2023/03/21 05:24:02;;;;;;;33.63;31.27;;;;;;;-141.22;100.00;65034.22;4922198;29;20560;-46
2023/03/21 05:26:30;;;;;;;32.17;29.87;;;;;;;-141.22;100.00;65034.22;4922423;29;20457;-49
2023/03/21 05:28:57;;;;;;;33.13;30.40;;;;;;;-141.22;100.00;65034.22;4922018;29;20449;-45
2023/03/21 05:31:25;;;;;;;34.33;31.47;;;;;;;-141.22;100.00;65034.22;4921492;28;20836;-46
2023/03/21 05:33:53;;;;;;;34.67;32.47;;;;;;;-141.22;100.00;65034.22;4922102;29;20433;-46
2023/03/21 05:36:22;;;;;;;36.10;33.17;;;;;;;-141.22;100.00;65034.22;4921974;29;20449;-46
2023/03/21 05:38:50;;;;;;;33.50;30.93;;;;;;;-141.22;100.00;65034.22;4921739;29;20536;-44
2023/03/21 05:41:20;;;;;;;31.30;29.20;;;;;;;-141.22;100.00;65034.22;4921721;29;20457;-54
2023/03/21 05:43:48;;;;;;;31.60;29.50;;;;;;;-141.22;100.00;65034.22;4922434;29;20434;-45
2023/03/21 05:46:15;;;;;;;32.27;29.87;;;;;;;-141.22;100.00;65034.22;4921777;29;20440;-46
2023/03/21 05:48:43;;;;;;;30.80;28.90;;;;;;;-141.22;100.00;65034.22;4922300;29;20804;-48
2023/03/21 05:51:11;;;;;;;31.57;29.57;;;;;;;-141.22;100.00;65034.22;4921491;28;20468;-44
2023/03/21 05:53:40;;;;;;;33.53;30.97;;;;;;;-141.22;100.00;65034.22;4921686;29;20856;-48
2023/03/21 05:56:08;;;;;;;35.47;32.50;;;;;;;-141.22;100.00;65034.22;4921497;29;20443;-44
2023/03/21 05:58:36;;;;;;;34.70;32.30;;;;;;;-141.22;100.00;65034.22;4921869;29;20855;-43
2023/03/21 06:01:05;;;;;;;40.23;36.63;;;;;;;-141.22;100.00;65034.22;4920898;28;20466;-44
2023/03/21 06:03:32;;;;;;;38.93;35.87;;;;;;;-141.22;100.00;65034.22;4921556;29;21146;-44
2023/03/21 06:06:02;;;;;;;45.33;38.53;;;;;;;-141.22;100.00;65034.22;4922018;29;20438;-47
2023/03/21 06:08:30;;;;;;;38.77;34.97;;;;;;;-141.22;100.00;65034.22;4921641;29;20849;-44
2023/03/21 06:10:59;;;;;;;39.43;36.07;;;;;;;-141.22;100.00;65034.22;4921991;28;20501;-44
2023/03/21 06:13:27;;;;;;;41.07;37.13;;;;;;;-141.22;100.00;65034.22;4921288;29;20444;-45
2023/03/21 06:15:55;;;;;;;39.97;36.40;;;;;;;-141.22;100.00;65034.22;4921702;29;20441;-45
2023/03/21 06:18:23;;;;;;;42.67;38.30;;;;;;;-141.22;100.00;65034.22;4922007;29;20573;-44
2023/03/21 06:20:50;;;;;;;48.40;40.73;;;;;;;-141.22;100.00;65034.22;4921369;29;20469;-43
2023/03/21 06:23:18;;;;;;;45.63;41.03;;;;;;;-141.22;100.00;65034.22;4921884;29;20501;-44
2023/03/21 06:25:48;;;;;;;44.77;40.53;;;;;;;-141.22;100.00;65034.22;4921479;29;20445;-45
2023/03/21 06:28:17;;;;;;;45.27;41.07;;;;;;;-141.22;100.00;65034.22;4922121;29;20439;-49
2023/03/21 06:30:44;;;;;;;48.13;43.53;;;;;;;-141.22;100.00;65034.22;4921478;28;20991;-44
2023/03/21 06:33:12;;;;;;;51.00;46.00;;;;;;;-141.22;100.00;65034.22;4921587;29;20591;-44
2023/03/21 06:35:40;;;;;;;53.03;47.63;;;;;;;-141.22;100.00;65034.22;4921983;29;20979;-44
2023/03/21 06:38:08;;;;;;;51.83;46.77;;;;;;;-141.22;100.00;65034.22;4921406;29;20444;-45
2023/03/21 06:40:37;;;;;;;52.70;47.77;;;;;;;-141.22;100.00;65034.22;4921054;28;20473;-47
2023/03/21 06:43:05;;;;;;;55.53;50.30;;;;;;;-141.22;100.00;65034.22;4921520;29;20434;-46
2023/03/21 06:45:34;;;;;;;57.40;51.20;;;;;;;-141.22;100.00;65034.22;4921142;29;20434;-44
2023/03/21 06:48:02;;;;;;;54.77;49.90;;;;;;;-141.22;100.00;65034.22;4921047;29;20485;-50
2023/03/21 06:50:29;;;;;;;58.00;52.37;;;;;;;-141.22;100.00;65034.22;4919678;29;20496;-43
2023/03/21 06:52:58;;;;;;;52.30;47.70;;;;;;;-141.22;100.00;65034.22;4919627;29;20971;-46
2023/03/21 06:55:27;;;;;;;55.50;50.40;;;;;;;-141.22;100.00;65034.22;4920003;29;20433;-46
2023/03/21 06:57:56;;;;;;;55.23;49.93;;;;;;;-141.22;100.00;65034.22;4920459;29;20440;-45
2023/03/21 07:00:24;;;;;;;52.77;47.63;;;;;;;-141.22;100.00;65034.22;4919273;28;20477;-46
2023/03/21 07:02:53;;;;;;;51.67;47.17;;;;;;;-141.22;100.00;65034.22;4919930;29;20430;-47
2023/03/21 07:05:21;;;;;;;51.13;46.50;;;;;;;-141.22;100.00;65034.22;4919692;29;20473;-45
2023/03/21 07:07:49;;;;;;;52.93;47.83;;;;;;;-141.22;100.00;65034.22;4920138;29;20460;-46
2023/03/21 07:10:17;;;;;;;49.27;45.03;;;;;;;-141.22;100.00;65034.22;4919466;29;20497;-49
2023/03/21 07:12:45;;;;;;;49.40;45.03;;;;;;;-141.22;100.00;65034.22;4919324;29;20461;-45
2023/03/21 07:15:13;;;;;;;47.50;43.50;;;;;;;-141.22;100.00;65034.22;4919794;29;20505;-47
2023/03/21 07:17:41;;;;;;;46.37;42.57;;;;;;;-141.22;100.00;65034.22;4919710;29;20444;-48
2023/03/21 07:20:12;;;;;;;46.93;42.80;;;;;;;-141.22;100.00;65034.22;4918928;28;20847;-46
2023/03/21 07:22:41;;;;;;;42.80;39.33;;;;;;;-141.22;100.00;65034.22;4919906;29;20437;-45
2023/03/21 07:25:09;;;;;;;44.67;40.87;;;;;;;-141.22;100.00;65034.22;4920161;29;20441;-46
2023/03/21 07:27:37;;;;;;;46.93;42.97;;;;;;;-141.22;100.00;65034.22;4920182;29;20808;-46
2023/03/21 07:30:09;;;;;;;48.07;44.07;;;;;;;-141.22;100.00;65034.22;4919161;29;20476;-47
2023/03/21 07:32:37;;;;;;;47.43;43.13;;;;;;;-141.22;100.00;65034.22;4919099;29;20440;-43
2023/03/21 07:35:05;;;;;;;49.00;44.30;;;;;;;-141.22;100.00;65034.22;4920641;29;20444;-45
2023/03/21 07:37:34;;;;;;;51.03;46.47;;;;;;;-141.22;100.00;65034.22;4920321;29;21065;-49
2023/03/21 07:40:09;;;;;;;51.63;46.73;;;;;;;-141.22;100.00;65034.22;4919949;29;20470;-44
2023/03/21 07:42:37;;;;;;;50.30;46.00;;;;;;;-141.22;100.00;65034.22;4919677;29;21042;-44
2023/03/21 07:45:06;;;;;;;50.43;46.03;;;;;;;-141.22;100.00;65034.22;4920225;29;20445;-44
2023/03/21 07:47:35;;;;;;;52.10;47.47;;;;;;;-141.22;100.00;65034.22;4919887;29;20438;-44
2023/03/21 07:50:03;;;;;;;49.60;45.40;;;;;;;-141.22;100.00;65034.22;4916234;28;20464;-44
2023/03/21 07:52:31;;;;;;;54.90;49.13;;;;;;;-141.22;100.00;65034.22;4919815;29;20437;-44
2023/03/21 07:55:00;;;;;;;52.37;47.63;;;;;;;-141.22;100.00;65034.22;4920206;29;20440;-45
2023/03/21 07:57:28;;;;;;;52.20;47.37;;;;;;;-141.22;100.00;65034.22;4920284;29;20437;-47
2023/03/21 07:59:56;;;;;;;49.50;45.50;;;;;;;-141.22;100.00;65034.22;4919317;29;20501;-49
2023/03/21 08:02:23;;;;;;;51.57;47.40;;;;;;;-141.22;100.00;65034.22;4920206;29;20437;-46
2023/03/21 08:04:51;;;;;;;53.77;48.53;;;;;;;-141.22;100.00;65034.22;4919418;29;20438;-46
2023/03/21 08:07:19;;;;;;;52.23;47.80;;;;;;;-141.22;100.00;65034.22;4919710;29;20860;-44
2023/03/21 08:09:47;;;;;;;55.40;50.63;;;;;;;-141.22;100.00;65034.22;4919052;29;20457;-46
2023/03/21 08:12:16;;;;;;;51.37;46.80;;;;;;;-141.22;100.00;65034.22;4918346;28;20466;-46
2023/03/21 08:14:44;;;;;;;52.73;47.90;;;;;;;-141.22;100.00;65034.22;4919118;29;20489;-49
2023/03/21 08:17:12;;;;;;;57.47;51.67;;;;;;;-141.22;100.00;65034.22;4919187;29;20437;-47
2023/03/21 08:19:39;;;;;;;54.20;49.40;;;;;;;-141.22;100.00;65034.22;4918541;29;20492;-47
2023/03/21 08:22:07;;;;;;;53.87;48.90;;;;;;;-141.22;100.00;65034.22;4918143;29;20462;-46
2023/03/21 08:24:35;;;;;;;57.37;51.83;;;;;;;-141.22;100.00;65034.22;4918575;29;20473;-46
2023/03/21 08:27:02;;;;;;;52.73;47.97;;;;;;;-141.22;100.00;65034.22;4918575;29;20442;-47
2023/03/21 08:29:31;;;;;;;55.13;50.00;;;;;;;-141.22;100.00;65034.22;4918378;29;20477;-49
2023/03/21 08:31:59;;;;;;;55.10;50.20;;;;;;;-141.22;100.00;65034.22;4917903;28;20468;-48
2023/03/21 08:34:27;;;;;;;52.70;48.40;;;;;;;-141.22;100.00;65034.22;4918653;29;20445;-46
2023/03/21 08:36:54;;;;;;;53.60;48.80;;;;;;;-141.22;100.00;65034.22;4918337;29;20774;-46
2023/03/21 08:39:23;;;;;;;50.93;46.73;;;;;;;-141.22;100.00;65034.22;4918371;29;20484;-44
2023/03/21 08:41:51;;;;;;;49.90;45.80;;;;;;;-141.22;100.00;65034.22;4917742;28;20517;-50
2023/03/21 08:44:20;;;;;;;51.93;47.70;;;;;;;-141.22;100.00;65034.22;4918005;29;20437;-44
2023/03/21 08:46:49;;;;;;;50.87;46.60;;;;;;;-141.22;100.00;65034.22;4918896;29;20441;-46
2023/03/21 08:49:17;;;;;;;51.70;47.53;;;;;;;-141.22;100.00;65034.22;4918206;29;20485;-49
2023/03/21 08:51:45;;;;;;;51.27;47.27;;;;;;;-141.22;100.00;65034.22;4917610;28;20465;-46
2023/03/21 08:54:19;;;;;;;50.23;46.10;;;;;;;-141.22;100.00;65034.22;4918023;29;20434;-45
2023/03/21 08:56:47;;;;;;;51.00;46.87;;;;;;;-141.22;100.00;65034.22;4918262;29;20434;-45
2023/03/21 08:59:15;;;;;;;49.67;45.97;;;;;;;-141.22;100.00;65034.22;4917794;29;20473;-44
2023/03/21 09:01:43;;;;;;;50.67;46.73;;;;;;;-141.22;100.00;65034.22;4917445;28;20457;-46
2023/03/21 09:04:13;;;;;;;51.90;47.57;;;;;;;-141.22;100.00;65034.22;4918324;29;20429;-50
2023/03/21 09:06:46;;;;;;;49.90;46.00;;;;;;;-141.22;100.00;65034.22;4918646;29;20451;-45
2023/03/21 09:09:14;;;;;;;52.10;47.90;;;;;;;-141.22;100.00;65034.22;4918127;29;20464;-45
2023/03/21 09:11:42;;;;;;;49.20;45.40;;;;;;;-141.22;100.00;65034.22;4917397;28;20497;-45
2023/03/21 09:14:10;;;;;;;50.57;46.57;;;;;;;-141.22;100.00;65034.22;4918636;29;20481;-46
2023/03/21 09:16:38;;;;;;;47.30;43.90;;;;;;;-141.22;100.00;65034.22;4918188;29;20562;-47
2023/03/21 09:19:07;;;;;;;48.13;44.60;;;;;;;-141.22;100.00;65034.22;4917776;29;20461;-46
2023/03/21 09:21:37;;;;;;;49.80;45.70;;;;;;;-141.22;100.00;65034.22;4917052;28;20505;-47
2023/03/21 09:24:06;;;;;;;50.73;46.63;;;;;;;-141.22;100.00;65034.22;4917548;29;20445;-46
2023/03/21 09:26:34;;;;;;;49.03;45.20;;;;;;;-141.22;100.00;65034.22;4917866;29;20448;-44
2023/03/21 09:29:04;;;;;;;52.23;47.73;;;;;;;-141.22;100.00;65034.22;4917671;29;20464;-46
2023/03/21 09:31:32;;;;;;;50.50;46.90;;;;;;;-141.22;100.00;65034.22;4917334;28;20479;-46
2023/03/21 09:34:00;;;;;;;49.10;45.50;;;;;;;-141.22;100.00;65034.22;4918430;29;20516;-45
2023/03/21 09:36:31;;;;;;;49.80;46.07;;;;;;;-141.22;100.00;65034.22;4917625;29;20438;-46
2023/03/21 09:39:02;;;;;;;49.70;45.93;;;;;;;-141.22;100.00;65034.22;4917942;29;20828;-44
2023/03/21 09:41:51;;;;;;;50.00;46.33;;;;;;;-141.22;100.00;65034.22;4917120;28;20476;-47
2023/03/21 09:44:31;;;;;;;50.37;46.77;;;;;;;-141.22;100.00;65034.22;4917796;29;20815;-46
2023/03/21 09:47:04;;;;;;;47.63;44.33;;;;;;;-141.22;100.00;65034.22;4918132;29;20441;-45
2023/03/21 09:49:37;;;;;;;48.33;44.93;;;;;;;-141.22;100.00;65034.22;4917400;29;20457;-46
2023/03/21 09:52:12;;;;;;;48.93;45.43;;;;;;;-141.22;100.00;65034.22;4916291;28;20458;-48
2023/03/21 09:54:43;;;;;;;49.93;46.07;;;;;;;-141.22;100.00;65034.22;4918382;29;20428;-44
2023/03/21 09:57:22;;;;;;;46.90;43.60;;;;;;;-141.22;100.00;65034.22;4921281;29;20442;-52
2023/03/21 09:59:53;;;;;;;48.60;45.30;;;;;;;-141.22;100.00;65034.22;4920982;29;20464;-48
2023/03/21 10:02:34;;;;;;;45.30;42.10;;;;;;;-141.22;100.00;65034.22;4920486;29;20461;-46
2023/03/21 10:05:10;;;;;;;46.57;43.10;;;;;;;-141.22;100.00;65034.22;4920968;29;20460;-44
2023/03/21 10:07:41;;;;;;;46.70;43.50;;;;;;;-141.22;100.00;65034.22;4921223;29;20543;-45
2023/03/21 10:10:16;;;;;;;45.43;42.50;;;;;;;-141.22;100.00;65034.22;4920045;28;20946;-44
2023/03/21 10:12:46;;;;;;;45.80;42.67;;;;;;;-141.22;100.00;65034.22;4920728;29;20441;-44
2023/03/21 10:15:18;;;;;;;46.23;43.13;;;;;;;-141.22;100.00;65034.22;4921108;29;20453;-46
2023/03/21 10:17:52;;;;;;;46.97;43.77;;;;;;;-141.22;100.00;65034.22;4920652;29;20468;-54
2023/03/21 10:20:22;;;;;;;45.60;42.57;;;;;;;-141.22;100.00;65034.22;4919791;28;20472;-44
2023/03/21 10:22:53;;;;;;;46.77;43.53;;;;;;;-141.22;100.00;65034.22;4920316;29;20433;-47
2023/03/21 10:25:29;;;;;;;43.30;40.50;;;;;;;-141.22;100.00;65034.22;4920205;29;20430;-47
2023/03/21 10:27:58;;;;;;;44.50;41.67;;;;;;;-141.22;100.00;65034.22;4920855;29;20433;-47
2023/03/21 10:30:35;;;;;;;44.37;41.67;;;;;;;-141.22;100.00;65034.22;4920746;28;20465;-46
2023/03/21 10:33:08;;;;;;;43.43;40.70;;;;;;;-141.22;100.00;65034.22;4920905;29;20434;-48
2023/03/21 10:35:38;;;;;;;43.20;40.50;;;;;;;-141.22;100.00;65034.22;4920088;29;20446;-47
2023/03/21 10:38:14;;;;;;;42.97;40.20;;;;;;;-141.22;100.00;65034.22;4919804;29;20457;-45
2023/03/21 10:40:44;;;;;;;43.30;40.50;;;;;;;-141.22;100.00;65034.22;4920084;28;20481;-47
2023/03/21 10:43:21;;;;;;;43.10;40.40;;;;;;;-141.22;100.00;65034.22;4919438;29;20441;-44
2023/03/21 10:45:48;;;;;;;44.87;41.87;;;;;;;-141.22;100.00;65034.22;4920413;29;20421;-49
2023/03/21 10:48:16;;;;;;;43.10;40.30;;;;;;;-141.22;100.00;65034.22;4920168;29;20489;-47
2023/03/21 10:50:48;;;;;;;42.07;39.53;;;;;;;-141.22;100.00;65034.22;4919879;29;20469;-47
2023/03/21 10:53:19;;;;;;;42.60;40.00;;;;;;;-141.22;100.00;65034.22;4920454;29;20433;-48
2023/03/21 10:55:54;;;;;;;45.50;42.70;;;;;;;-141.22;100.00;65034.22;4920155;29;20434;-47
2023/03/21 10:58:26;;;;;;;44.20;41.40;;;;;;;-141.22;100.00;65034.22;4919370;29;20528;-48
2023/03/21 11:00:57;;;;;;;43.43;40.73;;;;;;;-141.22;100.00;65034.22;4919056;28;20485;-46
2023/03/21 11:03:30;;;;;;;45.40;42.40;;;;;;;-141.22;100.00;65034.22;4919410;29;20429;-45
2023/03/21 11:06:08;;;;;;;44.70;41.47;;;;;;;-141.22;100.00;65034.22;4919957;29;20437;-46
2023/03/21 11:08:41;;;;;;;43.87;41.10;;;;;;;-141.22;100.00;65034.22;4919643;29;20440;-49
2023/03/21 11:11:18;;;;;;;43.00;40.20;;;;;;;-141.22;100.00;65034.22;4929589;28;20476;-48
2023/03/21 11:13:57;;;;;;;42.70;40.10;;;;;;;-141.22;100.00;65034.22;4919804;29;20951;-51